createdAt,value
2022-12-16T00:02:33.803Z,34.21
2022-12-16T00:10:07.212Z,34.2
2022-12-16T00:17:41.727Z,34.32
2022-12-16T00:25:08.775Z,34.15
2022-12-16T00:32:50.959Z,34.22
2022-12-16T00:40:36.108Z,34.25
2022-12-16T00:48:14.085Z,34.33
2022-12-16T00:55:41.358Z,34.3
2022-12-16T01:03:11.228Z,34.45
2022-12-16T01:10:45.299Z,34.42
2022-12-16T01:18:11.808Z,34.33
2022-12-16T01:25:32.310Z,34.5
2022-12-16T01:32:57.312Z,34.38
2022-12-16T01:40:38.646Z,34.48
2022-12-16T01:48:28.033Z,34.45
2022-12-16T01:56:29.130Z,34.42
2022-12-16T02:04:20.012Z,34.45
2022-12-16T02:20:13.891Z,34.41
2022-12-16T02:36:51.259Z,34.37
2022-12-16T02:53:10.932Z,34.49
2022-12-16T03:09:23.094Z,34.53
2022-12-16T03:17:00.956Z,34.56
2022-12-16T03:25:00.959Z,34.54
2022-12-16T03:32:48.851Z,34.44
2022-12-16T03:40:44.073Z,34.48
2022-12-16T03:48:24.266Z,34.2
2022-12-16T03:55:56.542Z,34.28
2022-12-16T04:03:19.318Z,34.32
2022-12-16T04:10:41.826Z,34.28
2022-12-16T04:18:13.444Z,34.39
2022-12-16T04:32:09.462Z,33.47
2022-12-16T04:38:43.536Z,33.58
2022-12-16T04:45:10.212Z,32.16
2022-12-16T04:51:31.505Z,31.78
2022-12-16T05:04:42.625Z,31.4
2022-12-16T05:11:06.141Z,31.36
2022-12-16T05:17:34.058Z,31.45
2022-12-16T05:24:01.013Z,31.7
2022-12-16T05:37:19.532Z,31.36
2022-12-16T05:43:40.450Z,31.69
2022-12-16T05:50:06.650Z,31.71
2022-12-16T05:56:28.862Z,31.78
2022-12-16T06:02:59.215Z,31.93
2022-12-16T06:09:32.389Z,31.15
2022-12-16T06:16:08.305Z,31.06
2022-12-16T06:22:39.799Z,31.03
2022-12-16T06:29:06.585Z,30.75
2022-12-16T06:35:29.530Z,30.3
2022-12-16T06:41:52.961Z,30.11
2022-12-16T06:48:23.194Z,29.9
2022-12-16T06:54:44.913Z,29.9
2022-12-16T07:01:11.411Z,29.92
2022-12-16T07:07:36.402Z,30.65
2022-12-16T07:14:14.671Z,30.75
2022-12-16T07:20:37.476Z,30.99
2022-12-16T07:26:59.616Z,31.14
2022-12-16T07:33:27.179Z,31.5
2022-12-16T07:39:57.775Z,31.76
2022-12-16T07:46:33.333Z,31.88
2022-12-16T07:52:55.819Z,31.87
2022-12-16T07:59:26.774Z,32.06
2022-12-16T08:06:02.927Z,32.17
2022-12-16T08:12:25.596Z,32.17
2022-12-16T08:18:53.076Z,32.11
2022-12-16T08:25:18.925Z,31.97
2022-12-16T08:31:44.925Z,31.95
2022-12-16T08:38:14.614Z,32.17
2022-12-16T08:44:41.801Z,32.27
2022-12-16T08:51:14.453Z,32.34
2022-12-16T08:57:37.004Z,32.21
2022-12-16T09:04:02.323Z,32.17
2022-12-16T09:10:40.481Z,32
2022-12-16T09:17:05.093Z,31.85
2022-12-16T09:23:30.056Z,31.7
2022-12-16T09:29:53.125Z,31.72
2022-12-16T09:36:18.929Z,31.7
2022-12-16T09:42:57.994Z,31.61
2022-12-16T09:49:41.708Z,31.8
2022-12-16T09:56:26.842Z,31.75
2022-12-16T10:03:09.387Z,31.78
2022-12-16T10:10:10.603Z,31.77
2022-12-16T10:17:21.703Z,32.07
2022-12-16T10:24:23.440Z,32.19
2022-12-16T10:31:15.099Z,32.36
2022-12-16T10:37:55.532Z,32.44
2022-12-16T10:44:58.966Z,32.56
2022-12-16T10:51:30.567Z,32.61
2022-12-16T10:58:18.738Z,32.93
2022-12-16T11:05:11.656Z,32.56
2022-12-16T11:11:58.580Z,32.46
2022-12-16T11:18:53.089Z,32.32
2022-12-16T11:25:42.882Z,32.11
2022-12-16T11:32:18.677Z,32.19
2022-12-16T11:39:05.931Z,31.98
2022-12-16T11:45:47.158Z,31.82
2022-12-16T11:52:42.640Z,31.97
2022-12-16T11:59:37.937Z,32.15
2022-12-16T12:06:30.610Z,32.33
2022-12-16T12:13:37.886Z,32.53
2022-12-16T12:20:57.101Z,32.69
2022-12-16T12:27:51.915Z,32.34
2022-12-16T12:35:10.821Z,32.25
2022-12-16T12:42:22.954Z,32.15
2022-12-16T12:49:29.537Z,32.08
2022-12-16T12:56:43.272Z,31.99
2022-12-16T13:03:39.910Z,31.99
2022-12-16T13:10:19.598Z,32.02
2022-12-16T13:17:25.034Z,31.98
2022-12-16T13:24:09.675Z,32.04
2022-12-16T13:31:09.904Z,32.09
2022-12-16T13:37:57.555Z,31.78
2022-12-16T13:45:07.138Z,32
2022-12-16T13:52:06.722Z,31.28
2022-12-16T13:59:20.124Z,31.26
2022-12-16T14:06:25.126Z,31.19
2022-12-16T14:13:07.940Z,31.63
2022-12-16T14:20:27.628Z,31.67
2022-12-16T14:27:32.728Z,31.72
2022-12-16T14:34:14.601Z,31.76
2022-12-16T14:41:18.104Z,32.07
2022-12-16T14:49:05.147Z,33.07
2022-12-16T14:56:58.133Z,33.41
2022-12-16T15:04:30.621Z,33.86
2022-12-16T15:12:02.948Z,34.08
2022-12-16T15:19:33.710Z,34.19
2022-12-16T15:27:23.457Z,34.32
2022-12-16T15:34:58.011Z,34.35
2022-12-16T15:42:29.188Z,34.27
2022-12-16T15:50:06.429Z,34.27
2022-12-16T15:58:10.675Z,34.36
2022-12-16T16:06:06.200Z,34.69
2022-12-16T16:13:19.695Z,34.76
2022-12-16T16:20:47.790Z,34.81
2022-12-16T16:28:02.622Z,34.88
2022-12-16T16:35:21.872Z,34.94
2022-12-16T16:42:55.091Z,34.93
2022-12-16T16:50:22.687Z,34.92
2022-12-16T16:57:46.675Z,34.78
2022-12-16T17:05:25.684Z,34.69
2022-12-16T17:13:10.762Z,34.44
2022-12-16T17:20:27.979Z,34.45
2022-12-16T17:27:45.817Z,34.58
2022-12-16T17:35:11.187Z,34.66
2022-12-16T17:42:46.562Z,34.59
2022-12-16T17:50:13.221Z,34.6
2022-12-16T17:57:42.691Z,34.57
2022-12-16T18:05:05.232Z,34.52
2022-12-16T18:12:50.198Z,34.68
2022-12-16T18:20:01.804Z,34.59
2022-12-16T18:27:02.150Z,34.61
2022-12-16T18:34:20.369Z,34.56
2022-12-16T18:41:40.623Z,34.43
2022-12-16T18:49:00.302Z,34.39
2022-12-16T18:56:23.069Z,34.44
2022-12-16T19:03:37.672Z,34.36
2022-12-16T19:10:56.085Z,34.4
2022-12-16T19:18:19.693Z,34.01
2022-12-16T19:25:37.942Z,34.3
2022-12-16T19:32:53.769Z,34.24
2022-12-16T19:40:13.942Z,34.43
2022-12-16T19:47:40.316Z,34.58
2022-12-16T19:54:56.543Z,34.61
2022-12-16T20:02:08.573Z,34.63
2022-12-16T20:09:40.178Z,33.97
2022-12-16T20:17:04.282Z,34.06
2022-12-16T20:24:29.342Z,33.41
2022-12-16T20:31:42.244Z,33.71
2022-12-16T20:39:12.388Z,33.48
2022-12-16T20:46:58.447Z,32.95
2022-12-16T20:54:20.430Z,33.49
2022-12-16T21:01:32.730Z,33.87
2022-12-16T21:09:01.303Z,33.71
2022-12-16T21:16:12.671Z,33.89
2022-12-16T21:23:48.545Z,33.78
2022-12-16T21:31:11.703Z,33.64
2022-12-16T21:38:25.611Z,33.72
2022-12-16T21:45:46.274Z,33.77
2022-12-16T21:53:15.918Z,33.77
2022-12-16T22:01:01.804Z,33.67
2022-12-16T22:08:35.240Z,33.69
2022-12-16T22:16:10.050Z,33.88
2022-12-16T22:23:41.044Z,33.86
2022-12-16T22:31:15.958Z,33.78
2022-12-16T22:38:38.806Z,33.91
2022-12-16T22:46:06.076Z,33.8
2022-12-16T22:53:36.302Z,33.8
2022-12-16T23:01:20.993Z,33.86
2022-12-16T23:08:49.680Z,33.82
2022-12-16T23:16:30.285Z,33.91
2022-12-16T23:24:02.791Z,33.87
2022-12-16T23:31:46.427Z,33.86
2022-12-16T23:39:16.364Z,33.94
2022-12-16T23:46:44.294Z,34.03
2022-12-16T23:54:07.724Z,33.95
